Time;durP1;ratioP1;P1;durP2;ratioP2;P2;SDS_P1;SDS_P2;PMS_P1;PMS_P2;Temp;Humidity;BMP_temperature;BMP_pressure;BME280_temperature;BME280_humidity;BME280_pressure;Samples;Min_cycle;Max_cycle;Signal;HPM_P1;HPM_P2
2023/09/10 00:01:29;;;;;;;20.60;12.23;;;15.50;99.90;;;;;;5050491;28;20591;-70
2023/09/10 00:04:17;;;;;;;26.10;12.83;;;15.50;99.90;;;;;;5050403;28;20238;-70
2023/09/10 00:07:05;;;;;;;25.00;12.77;;;15.50;99.90;;;;;;5051010;28;20198;-70
2023/09/10 00:09:52;;;;;;;17.67;12.23;;;15.50;99.90;;;;;;5049376;28;20217;-70
2023/09/10 00:12:39;;;;;;;22.23;12.80;;;15.40;99.90;;;;;;5042043;28;20286;-70
2023/09/10 00:15:26;;;;;;;20.73;12.73;;;15.40;99.90;;;;;;5049918;28;20669;-70
2023/09/10 00:18:15;;;;;;;25.53;13.47;;;15.40;99.90;;;;;;5050437;28;20204;-70
2023/09/10 00:21:04;;;;;;;20.00;12.80;;;15.40;99.90;;;;;;5049663;28;20203;-70
2023/09/10 00:23:51;;;;;;;23.23;13.03;;;15.30;99.90;;;;;;5050667;28;20209;-70
2023/09/10 00:26:38;;;;;;;18.17;13.00;;;15.30;99.90;;;;;;5050089;28;20204;-70
2023/09/10 00:29:25;;;;;;;20.37;13.47;;;15.40;99.90;;;;;;5047023;28;20217;-70
2023/09/10 00:32:12;;;;;;;21.83;14.00;;;15.30;99.90;;;;;;5050096;28;20342;-70
2023/09/10 00:35:00;;;;;;;21.80;13.90;;;15.30;99.90;;;;;;5049931;28;20258;-70
2023/09/10 00:37:48;;;;;;;23.43;13.70;;;15.30;99.90;;;;;;5050262;28;20672;-70
2023/09/10 00:40:35;;;;;;;20.70;12.80;;;15.30;99.90;;;;;;5049973;28;20205;-70
2023/09/10 00:43:23;;;;;;;20.90;12.87;;;15.20;99.90;;;;;;5049159;28;20212;-70
2023/09/10 00:46:10;;;;;;;20.97;13.13;;;15.20;99.90;;;;;;5047204;28;20798;-69
2023/09/10 00:48:57;;;;;;;20.87;13.73;;;15.20;99.90;;;;;;5049387;28;20276;-70
2023/09/10 00:51:44;;;;;;;24.23;14.40;;;15.20;99.90;;;;;;5049516;28;20711;-70
2023/09/10 00:54:33;;;;;;;24.17;13.07;;;15.20;99.90;;;;;;5049705;28;20213;-70
2023/09/10 00:57:20;;;;;;;19.70;13.03;;;15.20;99.90;;;;;;5050078;28;20819;-70
2023/09/10 01:00:09;;;;;;;21.80;13.83;;;15.10;99.90;;;;;;5049432;28;20214;-70
2023/09/10 01:02:58;;;;;;;21.23;12.80;;;15.20;99.90;;;;;;5047165;28;20212;-70
2023/09/10 01:05:46;;;;;;;22.67;13.37;;;15.10;99.90;;;;;;5048957;28;20259;-70
2023/09/10 01:08:33;;;;;;;21.53;13.27;;;15.10;99.90;;;;;;5049333;28;20251;-70
2023/09/10 01:11:25;;;;;;;19.57;12.27;;;15.00;99.90;;;;;;5049803;28;20229;-70
2023/09/10 01:14:13;;;;;;;21.97;13.90;;;15.10;99.90;;;;;;5049998;28;20892;-70
2023/09/10 01:17:05;;;;;;;18.23;13.03;;;15.00;99.90;;;;;;5049742;28;20681;-70
2023/09/10 01:20:11;;;;;;;24.93;14.60;;;15.00;99.90;;;;;;5048011;28;20287;-70
2023/09/10 01:23:03;;;;;;;20.93;13.23;;;15.00;99.90;;;;;;5028653;28;20193;-70
2023/09/10 01:25:52;;;;;;;19.60;13.37;;;15.00;99.90;;;;;;5045072;28;20283;-70
2023/09/10 01:28:39;;;;;;;18.73;12.47;;;14.90;99.90;;;;;;5049229;28;20316;-70
2023/09/10 01:31:27;;;;;;;19.73;13.50;;;14.90;99.90;;;;;;5048507;28;20208;-70
2023/09/10 01:34:14;;;;;;;23.10;13.77;;;14.90;99.90;;;;;;5048981;28;20254;-69
2023/09/10 01:37:06;;;;;;;21.47;13.20;;;14.90;99.90;;;;;;5049083;28;21077;-70
2023/09/10 01:39:54;;;;;;;20.83;12.67;;;14.80;99.90;;;;;;5047010;28;20197;-70
2023/09/10 01:42:43;;;;;;;22.37;13.40;;;14.80;99.90;;;;;;5045199;28;20219;-70
2023/09/10 01:45:30;;;;;;;20.60;13.93;;;14.70;99.90;;;;;;5053009;28;20278;-70
2023/09/10 01:48:17;;;;;;;24.37;12.97;;;14.70;99.90;;;;;;5053153;28;20204;-70
2023/09/10 01:51:05;;;;;;;21.87;13.13;;;14.80;99.90;;;;;;5053006;28;20226;-70
2023/09/10 01:53:52;;;;;;;21.17;13.13;;;14.70;99.90;;;;;;5052924;28;20675;-69
2023/09/10 01:56:39;;;;;;;20.50;12.87;;;14.70;99.90;;;;;;5052870;28;20208;-70
2023/09/10 01:59:28;;;;;;;20.50;13.30;;;14.70;99.90;;;;;;5048273;28;20549;-69
2023/09/10 02:02:16;;;;;;;22.27;13.53;;;14.70;99.90;;;;;;5052233;28;20212;-70
2023/09/10 02:05:03;;;;;;;21.70;13.77;;;14.70;99.90;;;;;;5052676;28;20252;-70
2023/09/10 02:07:51;;;;;;;21.23;13.57;;;14.70;99.90;;;;;;5052764;28;20215;-70
2023/09/10 02:10:38;;;;;;;20.90;13.53;;;14.60;99.90;;;;;;5050239;28;20718;-70
2023/09/10 02:13:25;;;;;;;18.87;13.20;;;14.60;99.90;;;;;;5052989;28;20206;-70
2023/09/10 02:16:13;;;;;;;20.73;12.37;;;14.60;99.90;;;;;;5050636;28;20278;-69
2023/09/10 02:19:01;;;;;;;22.50;13.27;;;14.50;99.90;;;;;;5030737;28;20576;-70
2023/09/10 02:21:50;;;;;;;21.20;13.30;;;14.50;99.90;;;;;;5033104;28;20194;-70
2023/09/10 02:24:37;;;;;;;29.97;14.20;;;14.50;99.90;;;;;;5033046;28;20595;-70
2023/09/10 02:27:24;;;;;;;23.87;13.57;;;14.40;99.90;;;;;;5046222;28;20655;-69
2023/09/10 02:30:12;;;;;;;20.20;13.57;;;14.50;99.90;;;;;;5051409;28;20217;-70
2023/09/10 02:33:00;;;;;;;20.10;13.53;;;14.40;99.90;;;;;;5052389;28;20209;-70
2023/09/10 02:35:47;;;;;;;22.83;13.20;;;14.40;99.90;;;;;;5048884;28;20220;-70
2023/09/10 02:38:35;;;;;;;20.47;13.13;;;14.40;99.90;;;;;;5052288;28;20241;-70
2023/09/10 02:41:22;;;;;;;17.90;11.50;;;14.40;99.90;;;;;;5052299;28;20238;-70
2023/09/10 02:44:09;;;;;;;19.40;12.40;;;14.40;99.90;;;;;;5050820;28;20197;-70
2023/09/10 02:46:57;;;;;;;20.30;13.20;;;14.30;99.90;;;;;;5051970;28;20672;-70
2023/09/10 02:49:45;;;;;;;23.93;13.87;;;14.40;99.90;;;;;;5051438;28;20224;-70
2023/09/10 02:52:32;;;;;;;20.90;13.60;;;14.40;99.90;;;;;;5049537;28;20302;-70
2023/09/10 02:55:22;;;;;;;22.97;13.40;;;14.30;99.90;;;;;;5051076;28;20671;-70
2023/09/10 02:58:09;;;;;;;21.73;12.80;;;14.30;99.90;;;;;;5051976;28;20211;-70
2023/09/10 03:00:56;;;;;;;18.20;12.20;;;14.30;99.90;;;;;;5051058;28;20282;-70
2023/09/10 03:03:43;;;;;;;21.73;12.63;;;14.20;99.90;;;;;;5045707;28;20694;-70
2023/09/10 03:06:32;;;;;;;20.57;13.27;;;14.20;99.90;;;;;;5051674;28;20197;-69
2023/09/10 03:09:19;;;;;;;18.03;12.57;;;14.20;99.90;;;;;;5052102;28;20742;-69
2023/09/10 03:12:23;;;;;;;21.27;12.90;;;14.20;99.90;;;;;;5049778;28;20201;-70
2023/09/10 03:15:10;;;;;;;17.97;12.50;;;14.20;99.90;;;;;;5051062;28;20201;-70
2023/09/10 03:17:57;;;;;;;19.17;12.57;;;14.10;99.90;;;;;;5043830;28;20319;-70
2023/09/10 03:20:45;;;;;;;19.60;12.40;;;14.10;99.90;;;;;;5050489;28;20197;-70
2023/09/10 03:23:33;;;;;;;17.87;12.27;;;14.10;99.90;;;;;;5050262;28;20692;-70
2023/09/10 03:26:20;;;;;;;18.03;12.70;;;14.00;99.90;;;;;;5050063;28;20206;-69
2023/09/10 03:29:07;;;;;;;22.57;13.03;;;14.10;99.90;;;;;;5048222;28;20201;-69
2023/09/10 03:31:55;;;;;;;22.27;13.10;;;14.00;99.90;;;;;;5049836;28;20201;-70
2023/09/10 03:34:42;;;;;;;20.20;13.27;;;14.00;99.90;;;;;;5051244;28;20218;-70
2023/09/10 03:37:29;;;;;;;23.30;13.40;;;14.00;99.90;;;;;;5050999;28;20208;-69
2023/09/10 03:40:18;;;;;;;22.30;13.93;;;14.00;99.90;;;;;;5051921;28;20797;-69
2023/09/10 03:43:06;;;;;;;23.70;13.53;;;14.00;99.90;;;;;;5050962;28;20204;-69
2023/09/10 03:45:53;;;;;;;24.17;13.50;;;14.00;99.90;;;;;;5049340;28;20299;-69
2023/09/10 03:48:40;;;;;;;21.20;13.70;;;13.90;99.90;;;;;;5049420;28;20668;-69
2023/09/10 03:51:28;;;;;;;19.47;12.93;;;13.90;99.90;;;;;;5050700;28;20229;-69
2023/09/10 03:54:15;;;;;;;20.90;13.37;;;13.90;99.90;;;;;;5050683;28;20632;-70
2023/09/10 03:57:04;;;;;;;20.33;13.20;;;13.80;99.90;;;;;;5049838;28;20211;-69
2023/09/10 03:59:51;;;;;;;25.03;13.60;;;13.80;99.90;;;;;;5051204;28;20259;-69
2023/09/10 04:02:38;;;;;;;22.60;14.13;;;13.80;99.90;;;;;;5049371;28;20226;-69
2023/09/10 04:05:26;;;;;;;21.03;13.00;;;13.80;99.90;;;;;;5050723;28;20318;-70
2023/09/10 04:08:13;;;;;;;19.53;13.03;;;13.80;99.90;;;;;;5050514;28;20660;-70
2023/09/10 04:11:00;;;;;;;18.73;12.70;;;13.80;99.90;;;;;;5050323;28;20224;-70
2023/09/10 04:13:49;;;;;;;21.50;13.10;;;13.70;99.90;;;;;;5050169;28;20205;-70
2023/09/10 04:16:36;;;;;;;22.53;13.50;;;13.70;99.90;;;;;;5050353;28;20198;-70
2023/09/10 04:19:23;;;;;;;19.27;13.43;;;13.70;99.90;;;;;;5048441;28;20210;-70
2023/09/10 04:22:11;;;;;;;18.70;13.37;;;13.80;99.90;;;;;;5050863;28;20287;-69
2023/09/10 04:24:58;;;;;;;24.60;14.60;;;13.70;99.90;;;;;;5049815;28;20284;-70
2023/09/10 04:27:45;;;;;;;19.60;13.60;;;13.70;99.90;;;;;;5050134;28;20219;-70
2023/09/10 04:30:34;;;;;;;18.30;13.23;;;13.80;99.90;;;;;;5049389;28;20252;-69
2023/09/10 04:33:21;;;;;;;21.00;13.40;;;13.80;99.90;;;;;;5048872;28;20585;-69
2023/09/10 04:36:08;;;;;;;21.70;15.67;;;13.80;99.90;;;;;;5046490;28;20217;-70
2023/09/10 04:38:55;;;;;;;22.07;14.87;;;13.90;99.90;;;;;;5049881;28;20207;-69
2023/09/10 04:41:43;;;;;;;22.00;15.47;;;14.00;99.90;;;;;;5049948;28;20759;-70
2023/09/10 04:44:30;;;;;;;23.20;15.70;;;14.00;99.90;;;;;;5049165;28;20203;-69
2023/09/10 04:47:18;;;;;;;23.00;15.53;;;14.00;99.90;;;;;;5049601;28;20237;-70
2023/09/10 04:50:07;;;;;;;24.43;15.77;;;14.10;99.90;;;;;;5048152;28;20213;-70
2023/09/10 04:52:54;;;;;;;22.37;14.47;;;14.10;99.90;;;;;;5048976;28;20224;-70
2023/09/10 04:55:42;;;;;;;24.23;15.80;;;14.20;99.90;;;;;;5049041;28;20219;-69
2023/09/10 04:58:29;;;;;;;28.13;18.00;;;14.30;99.90;;;;;;5050134;28;20209;-69
2023/09/10 05:01:16;;;;;;;26.10;17.83;;;14.30;99.90;;;;;;5050037;28;20223;-70
2023/09/10 05:04:05;;;;;;;23.43;15.70;;;14.40;99.90;;;;;;5049941;28;20197;-70
2023/09/10 05:06:53;;;;;;;24.13;15.90;;;14.50;99.90;;;;;;5047988;28;20197;-70
2023/09/10 05:09:40;;;;;;;25.37;15.40;;;14.50;99.90;;;;;;5048062;28;20214;-70
2023/09/10 05:12:27;;;;;;;21.60;15.17;;;14.60;99.90;;;;;;5048557;28;20201;-70
2023/09/10 05:15:14;;;;;;;24.07;15.63;;;14.70;99.90;;;;;;5048617;28;20663;-69
2023/09/10 05:18:01;;;;;;;21.87;15.40;;;14.70;99.90;;;;;;5042448;28;20198;-70
2023/09/10 05:20:50;;;;;;;22.73;16.00;;;14.80;99.90;;;;;;5049400;28;20204;-69
2023/09/10 05:23:37;;;;;;;24.60;16.77;;;14.90;99.90;;;;;;5049913;28;20197;-70
2023/09/10 05:26:24;;;;;;;23.27;16.47;;;15.00;99.90;;;;;;5046558;28;20233;-69
2023/09/10 05:29:11;;;;;;;29.00;15.87;;;15.10;99.90;;;;;;5029986;28;20201;-70
2023/09/10 05:31:59;;;;;;;26.23;16.80;;;15.20;99.90;;;;;;5029674;28;20623;-69
2023/09/10 05:34:46;;;;;;;26.03;16.33;;;15.40;99.90;;;;;;5029848;28;20244;-70
2023/09/10 05:37:34;;;;;;;22.60;16.47;;;15.50;99.90;;;;;;5029623;28;20216;-70
2023/09/10 05:40:22;;;;;;;26.87;16.20;;;15.60;99.90;;;;;;5029911;28;20206;-70
2023/09/10 05:43:09;;;;;;;24.03;16.70;;;15.80;99.90;;;;;;5046676;28;20210;-70
2023/09/10 05:45:56;;;;;;;27.90;18.40;;;15.90;99.90;;;;;;5048884;28;20411;-70
2023/09/10 05:48:44;;;;;;;25.70;17.67;;;16.00;99.90;;;;;;5049079;28;20209;-70
2023/09/10 05:51:31;;;;;;;25.47;17.90;;;16.20;99.90;;;;;;5048264;28;20228;-69
2023/09/10 05:54:19;;;;;;;25.17;15.63;;;16.30;99.90;;;;;;5048793;28;20240;-70
2023/09/10 05:57:07;;;;;;;25.93;17.13;;;16.40;99.90;;;;;;5049087;28;20217;-70
2023/09/10 05:59:54;;;;;;;27.00;18.33;;;16.50;99.90;;;;;;5045803;28;20208;-69
2023/09/10 06:02:41;;;;;;;25.77;18.43;;;16.70;99.90;;;;;;5049519;28;20689;-70
2023/09/10 06:05:28;;;;;;;28.37;18.07;;;16.90;99.90;;;;;;5048557;28;20230;-69
2023/09/10 06:08:15;;;;;;;25.40;17.43;;;17.00;99.90;;;;;;5048274;28;20669;-70
2023/09/10 06:11:04;;;;;;;26.27;17.43;;;17.20;99.90;;;;;;5048739;28;20228;-69
2023/09/10 06:13:51;;;;;;;27.67;17.77;;;17.40;99.90;;;;;;5046995;28;20252;-70
2023/09/10 06:16:38;;;;;;;22.80;16.33;;;17.60;99.90;;;;;;5040831;28;20226;-70
2023/09/10 06:19:26;;;;;;;25.03;16.63;;;17.70;99.90;;;;;;5048235;28;20289;-69
2023/09/10 06:22:13;;;;;;;24.60;16.50;;;17.90;99.90;;;;;;5048149;28;20208;-70
2023/09/10 06:25:00;;;;;;;22.53;16.00;;;18.00;99.90;;;;;;5048792;28;20584;-70
2023/09/10 06:27:48;;;;;;;22.03;15.37;;;18.20;99.90;;;;;;5051410;28;20287;-69
2023/09/10 06:30:36;;;;;;;23.50;16.00;;;18.30;99.90;;;;;;5050661;28;20198;-70
2023/09/10 06:33:23;;;;;;;22.67;15.97;;;18.50;99.90;;;;;;5044258;28;20695;-70
2023/09/10 06:36:10;;;;;;;23.37;15.23;;;18.60;99.90;;;;;;5052234;28;20195;-69
2023/09/10 06:38:57;;;;;;;24.00;15.40;;;18.80;99.90;;;;;;5051485;28;20216;-69
2023/09/10 06:41:46;;;;;;;26.33;15.73;;;18.90;99.90;;;;;;5049214;28;20197;-70
2023/09/10 06:44:34;;;;;;;27.07;15.47;;;19.10;99.90;;;;;;5046678;28;20205;-70
2023/09/10 06:47:22;;;;;;;23.83;14.63;;;19.20;99.90;;;;;;5032841;28;20205;-70
2023/09/10 06:50:09;;;;;;;22.47;14.63;;;19.40;99.90;;;;;;5032034;28;20235;-70
2023/09/10 06:52:56;;;;;;;21.60;14.07;;;19.60;99.90;;;;;;5031443;28;20222;-70
2023/09/10 06:55:44;;;;;;;29.60;15.37;;;19.80;99.90;;;;;;5050908;28;20209;-69
2023/09/10 06:58:31;;;;;;;21.03;15.23;;;20.00;99.90;;;;;;5050187;28;20228;-70
2023/09/10 07:01:21;;;;;;;22.00;14.40;;;20.10;99.90;;;;;;5050545;28;20202;-70
2023/09/10 07:04:16;;;;;;;26.20;15.83;;;20.30;99.90;;;;;;5051544;28;20204;-70
2023/09/10 07:07:03;;;;;;;19.93;14.27;;;20.50;99.90;;;;;;5051591;28;20551;-70
2023/09/10 07:09:51;;;;;;;24.77;14.73;;;20.80;99.90;;;;;;5050801;28;20689;-70
2023/09/10 07:12:38;;;;;;;23.20;13.37;;;20.90;99.90;;;;;;5051534;28;20221;-70
2023/09/10 07:15:25;;;;;;;16.47;11.90;;;21.10;99.90;;;;;;5051403;28;20208;-70
2023/09/10 07:18:14;;;;;;;17.63;12.33;;;21.30;99.90;;;;;;5044179;28;20200;-70
2023/09/10 07:21:01;;;;;;;18.13;12.87;;;21.50;99.90;;;;;;5049355;28;20197;-70
2023/09/10 07:23:48;;;;;;;21.40;12.27;;;21.70;99.90;;;;;;5051065;28;20551;-70
2023/09/10 07:26:36;;;;;;;18.47;12.20;;;22.00;99.90;;;;;;5050749;28;20197;-70
2023/09/10 07:29:23;;;;;;;20.80;12.70;;;22.10;99.90;;;;;;5051831;28;20205;-70
2023/09/10 07:32:10;;;;;;;19.80;12.40;;;22.30;99.90;;;;;;5050447;28;20239;-70
2023/09/10 07:34:59;;;;;;;16.07;11.60;;;22.40;99.90;;;;;;5051141;28;20236;-70
2023/09/10 07:37:46;;;;;;;16.63;12.10;;;22.50;99.90;;;;;;5048363;28;20280;-70
2023/09/10 07:40:33;;;;;;;18.70;11.40;;;22.70;99.90;;;;;;5050006;28;20197;-70
2023/09/10 07:43:22;;;;;;;16.55;10.80;;;22.90;99.90;;;;;;5051059;28;20695;-70
2023/09/10 07:46:10;;;;;;;19.88;11.27;;;23.20;99.90;;;;;;5050146;28;20212;-70
2023/09/10 07:48:57;;;;;;;15.90;10.63;;;23.30;99.90;;;;;;5051468;28;20201;-70
2023/09/10 07:51:45;;;;;;;17.80;11.00;;;23.50;99.90;;;;;;5051075;28;20225;-69
2023/09/10 07:54:35;;;;;;;15.63;10.93;;;23.70;99.90;;;;;;5048615;28;20204;-70
2023/09/10 07:57:24;;;;;;;15.60;10.32;;;23.90;99.90;;;;;;5043051;28;20194;-70
2023/09/10 08:00:12;;;;;;;15.88;10.75;;;24.10;99.90;;;;;;5050586;28;20220;-70
2023/09/10 08:03:03;;;;;;;20.23;11.07;;;24.30;99.90;;;;;;5051176;28;20193;-70
2023/09/10 08:05:50;;;;;;;16.08;10.75;;;24.50;99.90;;;;;;5050447;28;20316;-70
2023/09/10 08:08:39;;;;;;;14.60;10.30;;;24.60;99.90;;;;;;5050750;28;20240;-70
2023/09/10 08:11:26;;;;;;;15.38;10.23;;;24.80;99.90;;;;;;5050405;28;20217;-70
2023/09/10 08:14:13;;;;;;;15.40;10.35;;;25.00;99.90;;;;;;5046587;28;20205;-70
2023/09/10 08:17:00;;;;;;;15.30;10.40;;;25.10;99.90;;;;;;5050276;28;20201;-70
2023/09/10 08:19:47;;;;;;;16.55;11.02;;;25.30;99.90;;;;;;5050221;28;20240;-70
2023/09/10 08:22:35;;;;;;;14.48;10.48;;;25.50;99.90;;;;;;5049689;28;20588;-70
2023/09/10 08:25:23;;;;;;;13.90;10.18;;;25.60;99.90;;;;;;5049818;28;20201;-70
2023/09/10 08:28:11;;;;;;;14.38;10.30;;;25.80;99.90;;;;;;5048257;28;20212;-70
2023/09/10 08:30:58;;;;;;;15.55;9.90;;;26.10;99.90;;;;;;5047784;28;20216;-70
2023/09/10 08:33:45;;;;;;;16.17;10.63;;;26.30;99.90;;;;;;5049926;28;20556;-70
2023/09/10 08:36:33;;;;;;;13.57;10.07;;;26.40;99.90;;;;;;5050331;28;20610;-70
2023/09/10 08:39:20;;;;;;;10.60;8.07;;;26.50;99.90;;;;;;5050035;28;20254;-70
2023/09/10 08:42:12;;;;;;;16.17;8.20;;;26.50;99.90;;;;;;5049083;28;20686;-70
2023/09/10 08:45:02;;;;;;;11.68;8.35;;;26.40;99.90;;;;;;5046769;28;20785;-70
2023/09/10 08:47:49;;;;;;;13.70;9.43;;;26.10;99.90;;;;;;5046997;28;20201;-70
2023/09/10 08:50:36;;;;;;;12.88;9.35;;;26.10;99.90;;;;;;5049621;28;20209;-70
2023/09/10 08:53:23;;;;;;;13.05;9.10;;;26.60;99.90;;;;;;5049484;28;20217;-70
2023/09/10 08:56:11;;;;;;;12.50;9.30;;;26.80;99.90;;;;;;5030306;28;20578;-71
2023/09/10 08:58:59;;;;;;;12.88;8.77;;;27.00;99.90;;;;;;5029826;28;20592;-70
2023/09/10 09:01:47;;;;;;;12.93;9.23;;;27.20;99.90;;;;;;5028947;28;20225;-70
2023/09/10 09:04:34;;;;;;;13.73;9.05;;;27.00;99.90;;;;;;5042475;28;20236;-70
2023/09/10 09:07:21;;;;;;;18.10;8.82;;;27.10;99.90;;;;;;5029803;28;20959;-70
2023/09/10 09:10:09;;;;;;;13.50;9.63;;;26.90;99.90;;;;;;5030064;28;20285;-71
2023/09/10 09:12:57;;;;;;;12.68;8.70;;;26.60;99.90;;;;;;5028892;28;20332;-70
2023/09/10 09:15:47;;;;;;;11.38;8.95;;;25.90;99.90;;;;;;5029312;28;20283;-70
2023/09/10 09:18:35;;;;;;;13.15;9.43;;;26.00;99.90;;;;;;5041860;28;20201;-70
2023/09/10 09:21:23;;;;;;;14.38;9.20;;;26.30;99.90;;;;;;5029438;28;20665;-70
2023/09/10 09:24:12;;;;;;;13.35;9.27;;;26.90;99.90;;;;;;5030290;28;20205;-70
2023/09/10 09:26:59;;;;;;;11.25;8.20;;;27.30;99.90;;;;;;5029978;28;20271;-70
2023/09/10 09:29:46;;;;;;;12.32;8.50;;;27.70;99.90;;;;;;5028887;28;20686;-70
2023/09/10 09:32:37;;;;;;;13.77;8.75;;;27.80;99.90;;;;;;5029162;28;20380;-70
2023/09/10 09:35:24;;;;;;;13.75;8.77;;;28.00;99.90;;;;;;5047414;28;20205;-70
2023/09/10 09:38:13;;;;;;;11.75;8.77;;;28.50;99.90;;;;;;5047573;28;20566;-70
2023/09/10 09:41:03;;;;;;;10.63;8.82;;;28.60;99.90;;;;;;5028504;28;20209;-70
2023/09/10 09:43:50;;;;;;;12.35;8.48;;;28.80;99.90;;;;;;5029686;28;20202;-70
2023/09/10 09:46:38;;;;;;;13.00;8.60;;;28.90;99.70;;;;;;5029654;28;20202;-70
2023/09/10 09:49:27;;;;;;;13.75;8.15;;;28.80;99.90;;;;;;5032076;28;20511;-70
2023/09/10 09:52:14;;;;;;;11.00;7.35;;;29.10;99.90;;;;;;5039307;28;20228;-71
2023/09/10 09:55:05;;;;;;;10.40;7.40;;;29.60;98.20;;;;;;5048200;28;20667;-71
2023/09/10 09:57:53;;;;;;;10.00;7.20;;;29.30;86.70;;;;;;5049456;28;20703;-70
2023/09/10 10:00:40;;;;;;;12.10;7.55;;;29.00;77.30;;;;;;5048798;28;20205;-70
2023/09/10 10:03:27;;;;;;;9.75;6.00;;;28.70;77.50;;;;;;5052989;28;20826;-70
2023/09/10 10:06:17;;;;;;;8.98;6.05;;;28.00;66.20;;;;;;5051929;28;20236;-70
2023/09/10 10:09:04;;;;;;;10.15;6.20;;;28.10;73.20;;;;;;5050299;28;20331;-71
2023/09/10 10:11:52;;;;;;;12.63;5.80;;;28.40;67.80;;;;;;5052730;28;20235;-70
2023/09/10 10:14:39;;;;;;;9.68;6.10;;;28.10;67.20;;;;;;5052693;28;20216;-70
2023/09/10 10:17:26;;;;;;;9.45;6.05;;;28.30;69.00;;;;;;5052426;28;20205;-69
2023/09/10 10:20:13;;;;;;;7.22;5.57;;;28.50;62.50;;;;;;5051873;28;20679;-70
2023/09/10 10:23:02;;;;;;;9.43;5.38;;;28.70;62.50;;;;;;5052575;28;20197;-70
2023/09/10 10:25:50;;;;;;;6.95;5.47;;;28.50;64.40;;;;;;5047487;28;20322;-70
2023/09/10 10:28:37;;;;;;;11.10;5.65;;;28.50;60.00;;;;;;5052914;28;20303;-70
2023/09/10 10:31:26;;;;;;;8.38;5.32;;;28.20;58.40;;;;;;5053019;28;20231;-70
2023/09/10 10:34:16;;;;;;;10.38;5.20;;;28.60;69.20;;;;;;5052883;28;20202;-70
2023/09/10 10:37:08;;;;;;;6.30;4.53;;;28.90;57.50;;;;;;5052355;28;20280;-70
2023/09/10 10:40:05;;;;;;;6.65;4.47;;;28.30;58.40;;;;;;5050642;28;20608;-70
2023/09/10 10:42:58;;;;;;;7.95;4.75;;;28.80;54.40;;;;;;5044712;28;20205;-70
2023/09/10 10:45:46;;;;;;;8.02;5.30;;;29.30;55.20;;;;;;5051837;28;20205;-69
2023/09/10 10:48:35;;;;;;;7.22;5.28;;;29.50;53.30;;;;;;5050407;28;20660;-70
2023/09/10 10:51:22;;;;;;;7.28;5.30;;;29.70;54.50;;;;;;5052648;28;20597;-70
2023/09/10 10:54:09;;;;;;;11.02;5.47;;;29.40;54.50;;;;;;5052469;28;20276;-70
2023/09/10 10:56:58;;;;;;;11.15;5.57;;;29.60;58.30;;;;;;5050515;28;20679;-70
2023/09/10 10:59:45;;;;;;;7.53;5.38;;;30.00;62.10;;;;;;5050018;28;20216;-70
2023/09/10 11:02:32;;;;;;;9.65;5.80;;;30.40;56.50;;;;;;5051542;28;20219;-70
2023/09/10 11:05:19;;;;;;;9.48;6.30;;;30.50;56.50;;;;;;5051486;28;20237;-70
2023/09/10 11:08:27;;;;;;;9.52;5.40;;;30.00;56.50;;;;;;5051700;28;20201;-70
2023/09/10 11:11:50;;;;;;;8.50;5.00;;;30.20;51.80;;;;;;5050589;28;20259;-70
2023/09/10 11:15:06;;;;;;;8.93;5.50;;;30.00;52.20;;;;;;5051222;28;20236;-70
2023/09/10 11:17:54;;;;;;;8.30;5.15;;;30.00;53.20;;;;;;5045581;28;20205;-70
2023/09/10 11:20:50;;;;;;;11.35;5.05;;;30.00;51.80;;;;;;5051402;28;20219;-70
2023/09/10 11:23:38;;;;;;;7.07;5.18;;;29.10;51.20;;;;;;5051393;28;20197;-70
2023/09/10 11:26:35;;;;;;;8.50;5.13;;;29.10;53.30;;;;;;5050923;28;20284;-70
2023/09/10 11:29:22;;;;;;;7.53;4.95;;;29.40;54.50;;;;;;5050863;28;20624;-70
2023/09/10 11:32:18;;;;;;;10.10;5.25;;;30.00;55.60;;;;;;5050062;28;20224;-70
2023/09/10 11:35:26;;;;;;;8.23;4.97;;;30.60;50.40;;;;;;5050528;28;20304;-70
2023/09/10 11:38:14;;;;;;;9.40;4.72;;;30.60;46.50;;;;;;5050591;28;20205;-68
2023/09/10 11:41:01;;;;;;;10.43;5.50;;;30.20;50.00;;;;;;5042035;28;20205;-70
2023/09/10 11:43:50;;;;;;;8.95;5.40;;;30.60;51.60;;;;;;5050395;28;20204;-70
2023/09/10 11:46:37;;;;;;;12.65;5.30;;;31.10;49.70;;;;;;5051741;28;20220;-70
2023/09/10 11:49:27;;;;;;;10.55;5.18;;;31.40;51.90;;;;;;5048651;28;20695;-70
2023/09/10 11:52:14;;;;;;;8.52;5.00;;;30.80;48.20;;;;;;5030326;28;20597;-70
2023/09/10 11:55:01;;;;;;;8.82;5.53;;;30.80;47.70;;;;;;5043703;28;20212;-70
2023/09/10 11:57:50;;;;;;;10.52;5.57;;;30.40;50.20;;;;;;5050662;28;20520;-70
2023/09/10 12:00:37;;;;;;;8.02;5.38;;;30.10;48.80;;;;;;5050925;28;20209;-70
2023/09/10 12:03:24;;;;;;;7.82;5.72;;;30.20;49.10;;;;;;5050658;28;20208;-70
2023/09/10 12:06:13;;;;;;;9.13;5.05;;;29.70;51.00;;;;;;5045698;28;20220;-70
2023/09/10 12:09:00;;;;;;;7.47;5.18;;;29.80;51.30;;;;;;5050556;28;20583;-70
2023/09/10 12:11:48;;;;;;;7.53;5.03;;;29.40;50.60;;;;;;5050584;28;20201;-70
2023/09/10 12:14:35;;;;;;;9.32;5.03;;;30.20;52.30;;;;;;5050587;28;20201;-70
2023/09/10 12:17:22;;;;;;;9.93;5.18;;;30.20;52.40;;;;;;5049456;28;20327;-70
2023/09/10 12:20:11;;;;;;;8.70;5.40;;;30.80;50.80;;;;;;5048665;28;20575;-70
2023/09/10 12:23:00;;;;;;;7.32;5.13;;;31.20;47.50;;;;;;5042129;28;20225;-70
2023/09/10 12:25:54;;;;;;;9.13;5.57;;;31.50;49.10;;;;;;5050502;28;20216;-69
2023/09/10 12:28:41;;;;;;;8.35;5.30;;;30.80;47.00;;;;;;5050069;28;20232;-69
2023/09/10 12:31:28;;;;;;;8.50;5.22;;;30.40;48.40;;;;;;5049503;28;20334;-69
2023/09/10 12:34:16;;;;;;;7.70;5.18;;;30.90;49.90;;;;;;5050283;28;20221;-69
2023/09/10 12:37:03;;;;;;;8.57;5.70;;;30.90;50.20;;;;;;5048619;28;20290;-70
2023/09/10 12:39:52;;;;;;;5.82;5.18;;;30.50;49.00;;;;;;5048177;28;20462;-69
2023/09/10 12:42:39;;;;;;;8.50;5.88;;;31.00;49.90;;;;;;5049863;28;20198;-70
2023/09/10 12:45:26;;;;;;;11.10;5.50;;;31.60;47.70;;;;;;5049956;28;20607;-69
2023/09/10 12:48:13;;;;;;;10.95;5.22;;;31.90;45.30;;;;;;5049667;28;20232;-70
2023/09/10 12:51:00;;;;;;;7.10;5.20;;;31.90;46.70;;;;;;5049686;28;20664;-70
2023/09/10 12:53:48;;;;;;;7.57;4.80;;;31.90;47.10;;;;;;5049372;28;20245;-69
2023/09/10 12:56:37;;;;;;;9.77;5.03;;;31.60;44.80;;;;;;5046933;28;20351;-70
2023/09/10 12:59:24;;;;;;;6.72;4.50;;;31.00;44.10;;;;;;5048908;28;20587;-70
2023/09/10 13:02:11;;;;;;;7.57;4.93;;;31.20;43.60;;;;;;5049656;28;20573;-69
2023/09/10 13:04:59;;;;;;;6.15;4.85;;;31.20;44.20;;;;;;5049398;28;20236;-70
2023/09/10 13:07:46;;;;;;;6.43;4.63;;;31.00;44.30;;;;;;5049425;28;20205;-70
2023/09/10 13:10:33;;;;;;;6.88;4.65;;;31.60;47.40;;;;;;5048607;28;20647;-69
2023/09/10 13:13:22;;;;;;;10.30;5.03;;;32.10;45.80;;;;;;5047505;28;20259;-69
2023/09/10 13:16:09;;;;;;;5.38;4.40;;;31.70;45.40;;;;;;5048636;28;20205;-70
2023/09/10 13:18:56;;;;;;;7.18;4.70;;;32.20;48.30;;;;;;5049085;28;20664;-69
2023/09/10 13:21:44;;;;;;;5.78;4.70;;;32.60;47.80;;;;;;5049212;28;20250;-69
2023/09/10 13:24:31;;;;;;;11.00;4.78;;;32.10;43.70;;;;;;5049358;28;20201;-70
2023/09/10 13:27:18;;;;;;;9.32;4.68;;;31.50;47.00;;;;;;5049402;28;20230;-69
2023/09/10 13:30:08;;;;;;;6.15;4.63;;;32.10;46.50;;;;;;5049095;28;20201;-69
2023/09/10 13:32:55;;;;;;;5.95;4.65;;;31.10;44.10;;;;;;5046368;28;20703;-70
2023/09/10 13:35:43;;;;;;;9.18;4.97;;;31.00;44.50;;;;;;5048635;28;20328;-70
2023/09/10 13:38:30;;;;;;;7.68;4.45;;;31.50;44.60;;;;;;5049072;28;20213;-69
2023/09/10 13:41:17;;;;;;;8.88;4.78;;;32.10;45.00;;;;;;5049094;28;20683;-69
2023/09/10 13:44:05;;;;;;;8.50;5.00;;;31.60;44.70;;;;;;5048850;28;20240;-70
2023/09/10 13:46:53;;;;;;;6.78;4.70;;;31.90;44.60;;;;;;5049277;28;20205;-69
2023/09/10 13:49:40;;;;;;;8.35;5.05;;;32.20;44.40;;;;;;5047205;28;20212;-70
2023/09/10 13:52:28;;;;;;;5.85;4.60;;;32.40;46.30;;;;;;5048307;28;20304;-69
2023/09/10 13:55:15;;;;;;;6.28;4.93;;;32.20;44.70;;;;;;5048066;28;20207;-68
2023/09/10 13:58:02;;;;;;;8.70;4.80;;;32.00;42.90;;;;;;5048263;28;20201;-69
2023/09/10 14:00:49;;;;;;;10.23;4.82;;;31.50;43.90;;;;;;5048965;28;20205;-69
2023/09/10 14:03:38;;;;;;;6.70;4.35;;;31.50;46.10;;;;;;5049527;28;20204;-69
2023/09/10 14:06:25;;;;;;;9.90;4.65;;;31.50;42.40;;;;;;5048664;28;20558;-69
2023/09/10 14:09:12;;;;;;;8.32;4.40;;;30.70;44.10;;;;;;5048753;28;20201;-69
2023/09/10 14:12:00;;;;;;;6.97;4.50;;;30.60;44.50;;;;;;5048316;28;20690;-70
2023/09/10 14:14:47;;;;;;;6.85;4.65;;;30.80;48.80;;;;;;5048080;28;20710;-69
2023/09/10 14:17:34;;;;;;;7.70;4.38;;;31.50;48.40;;;;;;5048648;28;20204;-69
2023/09/10 14:20:23;;;;;;;9.77;4.18;;;32.10;44.30;;;;;;5048748;28;20573;-69